createdAt,value
2023-03-13T00:01:38.182Z,22.05
2023-03-13T00:04:04.760Z,22.33
2023-03-13T00:06:34.718Z,23.02
2023-03-13T00:09:02.325Z,32.53
2023-03-13T00:11:29.501Z,27.98
2023-03-13T00:13:57.826Z,25.52
2023-03-13T00:16:24.518Z,22.48
2023-03-13T00:18:53.456Z,29.77
2023-03-13T00:21:22.376Z,25.63
2023-03-13T00:23:49.469Z,26.00
2023-03-13T00:26:18.731Z,26.77
2023-03-13T00:28:46.120Z,24.17
2023-03-13T00:31:15.123Z,26.05
2023-03-13T00:33:43.956Z,32.83
2023-03-13T00:36:13.188Z,32.22
2023-03-13T00:38:40.179Z,33.97
2023-03-13T00:41:15.397Z,32.47
2023-03-13T00:43:43.414Z,26.65
2023-03-13T00:46:13.229Z,29.60
2023-03-13T00:48:39.800Z,27.88
2023-03-13T00:51:07.628Z,26.15
2023-03-13T00:53:34.169Z,28.50
2023-03-13T00:56:09.125Z,24.90
2023-03-13T00:58:37.553Z,27.73
2023-03-13T01:01:16.418Z,26.38
2023-03-13T01:03:44.794Z,23.35
2023-03-13T01:06:14.439Z,33.50
2023-03-13T01:08:41.204Z,33.33
2023-03-13T01:11:13.039Z,25.63
2023-03-13T01:13:39.921Z,23.13
2023-03-13T01:16:12.428Z,25.02
2023-03-13T01:18:41.135Z,28.05
2023-03-13T01:21:09.261Z,31.33
2023-03-13T01:23:35.725Z,23.80
2023-03-13T01:26:05.400Z,27.90
2023-03-13T01:28:32.518Z,28.85
2023-03-13T01:30:59.600Z,27.75
2023-03-13T01:33:26.662Z,28.15
2023-03-13T01:35:53.216Z,26.65
2023-03-13T01:38:19.806Z,30.55
2023-03-13T01:40:48.397Z,26.45
2023-03-13T01:43:27.452Z,17.90
2023-03-13T01:46:04.596Z,22.65
2023-03-13T01:48:52.615Z,26.33
2023-03-13T01:54:07.677Z,19.65
2023-03-13T01:56:48.060Z,15.57
2023-03-13T01:59:21.269Z,24.33
2023-03-13T02:01:50.997Z,22.58
2023-03-13T02:04:20.684Z,29.48
2023-03-13T02:06:49.480Z,19.33
2023-03-13T02:09:20.865Z,29.40
2023-03-13T02:11:57.593Z,20.23
2023-03-13T02:14:27.957Z,27.38
2023-03-13T02:17:21.520Z,15.15
2023-03-13T02:19:54.273Z,36.47
2023-03-13T02:22:38.972Z,28.00
2023-03-13T02:25:33.688Z,25.77
2023-03-13T02:28:03.421Z,25.40
2023-03-13T02:30:33.450Z,16.73
2023-03-13T02:33:00.987Z,19.15
2023-03-13T02:35:28.233Z,20.75
2023-03-13T02:37:59.755Z,19.65
2023-03-13T02:40:30.165Z,30.02
2023-03-13T02:43:00.417Z,21.00
2023-03-13T02:45:27.901Z,30.40
2023-03-13T02:47:54.320Z,21.15
2023-03-13T02:50:21.186Z,23.33
2023-03-13T02:52:53.634Z,28.35
2023-03-13T02:55:28.456Z,27.65
2023-03-13T02:57:55.323Z,23.50
2023-03-13T03:00:26.532Z,22.92
2023-03-13T03:02:54.944Z,25.10
2023-03-13T03:05:22.242Z,21.92
2023-03-13T03:07:50.243Z,20.80
2023-03-13T03:10:18.235Z,25.08
2023-03-13T03:12:45.256Z,23.38
2023-03-13T03:15:12.278Z,18.90
2023-03-13T03:17:43.193Z,29.90
2023-03-13T03:20:12.108Z,19.55
2023-03-13T03:22:41.677Z,27.77
2023-03-13T03:25:09.273Z,20.35
2023-03-13T03:27:36.430Z,26.98
2023-03-13T03:30:06.344Z,22.55
2023-03-13T03:32:34.635Z,28.65
2023-03-13T03:35:01.102Z,22.48
2023-03-13T03:37:27.706Z,25.48
2023-03-13T03:39:54.430Z,19.20
2023-03-13T03:42:20.886Z,24.98
2023-03-13T03:44:47.329Z,21.95
2023-03-13T03:47:14.651Z,19.63
2023-03-13T03:49:44.772Z,36.97
2023-03-13T03:52:12.737Z,19.50
2023-03-13T03:54:41.742Z,25.13
2023-03-13T03:57:08.201Z,22.15
2023-03-13T03:59:36.260Z,22.73
2023-03-13T04:02:05.910Z,23.23
2023-03-13T04:04:33.320Z,24.67
2023-03-13T04:07:04.503Z,25.35
2023-03-13T04:09:32.581Z,28.92
2023-03-13T04:12:00.872Z,21.88
2023-03-13T04:14:27.875Z,27.83
2023-03-13T04:16:54.855Z,23.98
2023-03-13T04:19:21.377Z,26.70
2023-03-13T04:21:47.873Z,19.75
2023-03-13T04:24:17.380Z,25.70
2023-03-13T04:26:44.783Z,30.92
2023-03-13T04:29:11.473Z,29.20
2023-03-13T04:31:56.615Z,24.92
2023-03-13T04:34:33.113Z,26.80
2023-03-13T04:40:02.151Z,25.35
2023-03-13T04:42:50.054Z,31.27
2023-03-13T04:45:38.129Z,27.88
2023-03-13T04:48:28.738Z,26.48
2023-03-13T04:51:02.653Z,32.28
2023-03-13T04:53:47.316Z,32.47
2023-03-13T04:56:43.201Z,27.17
2023-03-13T04:59:29.472Z,32.97
2023-03-13T05:02:31.269Z,29.75
2023-03-13T05:05:15.934Z,28.35
2023-03-13T05:07:58.097Z,29.30
2023-03-13T05:10:46.977Z,29.80
2023-03-13T05:13:28.949Z,25.75
2023-03-13T05:16:01.453Z,35.75
2023-03-13T05:18:37.325Z,33.15
2023-03-13T05:21:08.724Z,41.47
2023-03-13T05:23:53.912Z,27.33
2023-03-13T05:26:38.520Z,31.50
2023-03-13T05:29:18.871Z,43.13
2023-03-13T05:32:08.944Z,39.28
2023-03-13T05:34:53.899Z,41.75
2023-03-13T05:37:43.442Z,35.38
2023-03-13T05:40:30.164Z,42.92
2023-03-13T05:43:29.960Z,34.35
2023-03-13T05:46:14.772Z,33.28
2023-03-13T05:48:53.015Z,40.97
2023-03-13T05:51:35.520Z,38.30
2023-03-13T05:54:15.782Z,38.67
2023-03-13T05:57:00.727Z,26.02
2023-03-13T05:59:39.752Z,31.00
2023-03-13T06:02:23.620Z,37.92
2023-03-13T06:04:50.770Z,43.83
2023-03-13T06:07:17.656Z,33.28
2023-03-13T06:09:44.085Z,31.30
2023-03-13T06:12:11.506Z,30.48
2023-03-13T06:14:38.424Z,34.10
2023-03-13T06:17:30.671Z,29.83
2023-03-13T06:19:57.056Z,32.97
2023-03-13T06:22:23.464Z,26.50
2023-03-13T06:24:49.879Z,25.60
2023-03-13T06:27:17.016Z,40.80
2023-03-13T06:29:43.695Z,34.10
2023-03-13T06:32:10.232Z,35.20
2023-03-13T06:34:37.455Z,28.20
2023-03-13T06:37:04.033Z,26.63
2023-03-13T06:39:30.481Z,22.70
2023-03-13T06:41:56.880Z,31.25
2023-03-13T06:44:23.316Z,35.78
2023-03-13T06:46:49.725Z,39.55
2023-03-13T06:49:16.123Z,43.38
2023-03-13T06:51:42.512Z,35.30
2023-03-13T06:54:08.900Z,28.27
2023-03-13T06:56:35.321Z,30.83
2023-03-13T06:59:01.726Z,30.88
2023-03-13T07:01:28.266Z,29.52
2023-03-13T07:03:54.880Z,26.02
2023-03-13T07:06:21.293Z,39.47
2023-03-13T07:08:47.731Z,37.63
2023-03-13T07:11:14.663Z,33.15
2023-03-13T07:13:41.512Z,34.53
2023-03-13T07:16:10.470Z,33.53
2023-03-13T07:18:39.275Z,34.60
2023-03-13T07:21:05.796Z,28.08
2023-03-13T07:23:34.187Z,44.92
2023-03-13T07:26:04.206Z,31.60
2023-03-13T07:28:31.591Z,27.15
2023-03-13T07:31:05.915Z,32.53
2023-03-13T07:33:32.775Z,34.85
2023-03-13T07:35:59.199Z,36.50
2023-03-13T07:38:25.678Z,35.78
2023-03-13T07:40:54.498Z,37.10
2023-03-13T07:43:21.904Z,37.33
2023-03-13T07:45:57.161Z,40.90
2023-03-13T07:48:25.600Z,36.50
2023-03-13T07:50:52.036Z,29.00
2023-03-13T07:53:21.690Z,34.08
2023-03-13T07:56:03.466Z,34.50
2023-03-13T07:58:34.959Z,34.92
2023-03-13T08:01:01.380Z,36.03
2023-03-13T08:03:28.746Z,30.15
2023-03-13T08:06:09.653Z,27.83
2023-03-13T08:08:36.765Z,31.92
2023-03-13T08:11:09.049Z,28.30
2023-03-13T08:13:36.127Z,36.30
2023-03-13T08:16:14.872Z,32.95
2023-03-13T08:18:43.818Z,23.48
2023-03-13T08:21:15.996Z,35.10
2023-03-13T08:23:42.766Z,37.58
2023-03-13T08:26:14.612Z,28.50
2023-03-13T08:28:42.155Z,33.53
2023-03-13T08:31:17.470Z,36.08
2023-03-13T08:33:45.156Z,19.75
2023-03-13T08:36:18.813Z,35.55
2023-03-13T08:38:46.786Z,25.77
2023-03-13T08:41:18.667Z,31.42
2023-03-13T08:43:46.209Z,19.67
2023-03-13T08:46:13.517Z,23.98
2023-03-13T08:48:40.296Z,22.50
2023-03-13T08:51:12.077Z,23.52
2023-03-13T08:53:39.623Z,22.95
2023-03-13T08:56:06.843Z,20.25
2023-03-13T08:58:33.339Z,26.20
2023-03-13T09:01:04.587Z,28.85
2023-03-13T09:03:31.533Z,23.25
2023-03-13T09:05:59.033Z,21.13
2023-03-13T09:08:26.185Z,22.75
2023-03-13T09:10:57.571Z,16.92
2023-03-13T09:13:24.965Z,14.20
2023-03-13T09:15:58.922Z,16.77
2023-03-13T09:18:25.514Z,17.55
2023-03-13T09:20:52.699Z,17.73
2023-03-13T09:23:19.978Z,19.65
2023-03-13T09:25:46.563Z,22.90
2023-03-13T09:28:13.142Z,16.42
2023-03-13T09:30:39.554Z,17.75
2023-03-13T09:33:05.996Z,15.55
2023-03-13T09:35:32.497Z,11.40
2023-03-13T09:37:58.977Z,21.50
2023-03-13T09:40:27.896Z,17.55
2023-03-13T09:43:00.117Z,15.93
2023-03-13T09:45:41.889Z,12.57
2023-03-13T09:48:18.379Z,16.27
2023-03-13T09:50:56.560Z,17.75
2023-03-13T09:53:55.188Z,15.82
2023-03-13T09:56:26.486Z,14.75
2023-03-13T09:59:02.191Z,15.65
2023-03-13T10:01:31.256Z,16.48
2023-03-13T10:04:30.808Z,13.55
2023-03-13T10:06:57.461Z,15.52
2023-03-13T10:09:31.182Z,14.40
2023-03-13T10:12:12.668Z,11.85
2023-03-13T10:15:02.353Z,18.23
2023-03-13T10:17:37.341Z,22.90
2023-03-13T10:20:23.845Z,14.93
2023-03-13T10:22:55.954Z,13.43
2023-03-13T10:25:29.794Z,14.82
2023-03-13T10:27:56.416Z,10.85
2023-03-13T10:30:29.118Z,15.82
2023-03-13T10:33:08.111Z,10.98
2023-03-13T10:35:38.550Z,13.75
2023-03-13T10:38:18.694Z,11.95
2023-03-13T10:40:57.855Z,15.10
2023-03-13T10:43:25.983Z,15.05
2023-03-13T10:45:53.097Z,8.48
2023-03-13T10:48:20.487Z,8.95
2023-03-13T10:50:49.478Z,14.10
2023-03-13T10:53:31.026Z,7.65
2023-03-13T10:56:15.432Z,6.97
2023-03-13T10:58:47.420Z,6.07
2023-03-13T11:01:17.110Z,10.32
2023-03-13T11:03:44.987Z,8.00
2023-03-13T11:06:28.078Z,9.15
2023-03-13T11:09:15.111Z,7.63
2023-03-13T11:11:47.398Z,6.43
2023-03-13T11:14:25.938Z,6.53
2023-03-13T11:16:58.251Z,8.00
2023-03-13T11:19:53.878Z,4.53
2023-03-13T11:22:30.377Z,6.40
2023-03-13T11:25:08.710Z,6.45
2023-03-13T11:27:44.052Z,6.95
2023-03-13T11:30:19.788Z,5.78
2023-03-13T11:33:00.381Z,4.72
2023-03-13T11:35:57.932Z,5.32
2023-03-13T11:38:38.913Z,6.50
2023-03-13T11:41:41.876Z,4.25
2023-03-13T11:44:20.085Z,6.30
2023-03-13T11:46:59.716Z,6.35
2023-03-13T11:49:40.841Z,4.13
2023-03-13T11:52:19.474Z,3.95
2023-03-13T11:55:23.372Z,2.40
2023-03-13T11:58:37.372Z,2.70
2023-03-13T12:01:11.413Z,2.47
2023-03-13T12:03:55.810Z,3.33
2023-03-13T12:06:32.756Z,4.75
2023-03-13T12:09:12.005Z,3.53
2023-03-13T12:11:48.250Z,1.45
2023-03-13T12:14:26.090Z,2.42
2023-03-13T12:16:59.123Z,2.03
2023-03-13T12:19:35.006Z,2.75
2023-03-13T12:22:14.141Z,1.52
2023-03-13T12:24:49.990Z,3.65
2023-03-13T12:27:33.432Z,1.95
2023-03-13T12:30:14.808Z,3.55
2023-03-13T12:33:03.322Z,2.53
2023-03-13T12:35:34.855Z,1.60
2023-03-13T12:38:17.515Z,3.13
2023-03-13T12:41:17.245Z,2.40
2023-03-13T12:44:00.665Z,1.60
2023-03-13T12:46:41.053Z,4.25
2023-03-13T12:49:31.316Z,4.00
2023-03-13T12:52:12.846Z,1.60
2023-03-13T12:54:54.308Z,2.75
2023-03-13T12:57:56.038Z,2.00
2023-03-13T13:00:26.766Z,2.78
2023-03-13T13:03:37.810Z,1.92
2023-03-13T13:06:16.039Z,2.13
2023-03-13T13:08:47.041Z,2.25
2023-03-13T13:11:45.119Z,2.33
2023-03-13T13:14:11.446Z,4.43
2023-03-13T13:16:43.668Z,2.55
2023-03-13T13:19:24.939Z,4.53
2023-03-13T13:22:28.916Z,1.63
2023-03-13T13:25:01.447Z,1.83
2023-03-13T13:27:45.795Z,3.63
2023-03-13T13:30:18.473Z,2.10
2023-03-13T13:32:52.665Z,2.70
2023-03-13T13:35:26.470Z,3.55
2023-03-13T13:37:53.957Z,2.00
2023-03-13T13:40:26.645Z,2.40
2023-03-13T13:42:58.545Z,1.63
2023-03-13T13:45:28.371Z,5.75
2023-03-13T13:48:30.155Z,1.65
2023-03-13T13:51:09.694Z,3.15
2023-03-13T13:53:54.178Z,1.80
2023-03-13T13:56:38.062Z,2.45
2023-03-13T13:59:23.990Z,2.13
2023-03-13T14:02:15.981Z,2.45
2023-03-13T14:04:55.055Z,6.38
2023-03-13T14:07:37.267Z,1.63
2023-03-13T14:10:30.254Z,2.97
2023-03-13T14:12:59.483Z,4.38
2023-03-13T14:15:27.031Z,8.98
2023-03-13T14:17:56.073Z,2.13
2023-03-13T14:20:31.787Z,1.50
2023-03-13T14:23:06.894Z,3.10
2023-03-13T14:25:48.862Z,2.78
2023-03-13T14:28:24.024Z,2.85
2023-03-13T14:30:53.163Z,2.92
2023-03-13T14:33:19.987Z,2.28
2023-03-13T14:35:47.609Z,2.95
2023-03-13T14:38:22.297Z,4.15
2023-03-13T14:40:51.139Z,2.83
2023-03-13T14:43:40.936Z,2.55
2023-03-13T14:46:30.469Z,3.10
2023-03-13T14:48:57.144Z,3.38
2023-03-13T14:51:26.494Z,2.53
2023-03-13T14:53:55.433Z,6.22
2023-03-13T14:56:42.164Z,2.08
2023-03-13T14:59:23.281Z,2.20
2023-03-13T15:02:00.602Z,1.70
2023-03-13T15:04:50.305Z,2.72
2023-03-13T15:07:17.247Z,3.03
2023-03-13T15:09:45.278Z,5.70
2023-03-13T15:12:18.157Z,1.58
2023-03-13T15:14:49.487Z,3.35
2023-03-13T15:17:17.493Z,1.90
2023-03-13T15:19:49.103Z,9.30
2023-03-13T15:22:16.460Z,2.42
2023-03-13T15:24:46.774Z,3.88
2023-03-13T15:27:22.981Z,5.03
2023-03-13T15:29:49.404Z,2.03
2023-03-13T15:32:21.492Z,5.18
2023-03-13T15:34:47.879Z,1.17
2023-03-13T15:37:14.431Z,1.40
2023-03-13T15:39:41.528Z,7.38
2023-03-13T15:42:08.033Z,2.58
2023-03-13T15:44:35.073Z,2.78
2023-03-13T15:47:01.511Z,3.20
2023-03-13T15:49:27.943Z,4.75
2023-03-13T15:51:55.801Z,12.48
2023-03-13T15:54:24.507Z,3.42
2023-03-13T15:56:52.758Z,4.25
2023-03-13T15:59:19.147Z,4.05
2023-03-13T16:01:45.562Z,2.88
2023-03-13T16:04:13.363Z,1.90
2023-03-13T16:06:39.847Z,4.70
2023-03-13T16:09:06.866Z,4.80
2023-03-13T16:11:34.097Z,4.75
2023-03-13T16:14:00.501Z,1.40
2023-03-13T16:16:29.542Z,4.95
2023-03-13T16:18:57.982Z,3.90
2023-03-13T16:21:33.238Z,5.28
2023-03-13T16:24:00.739Z,2.63
2023-03-13T16:26:30.428Z,4.85
2023-03-13T16:28:57.717Z,6.13
2023-03-13T16:31:30.448Z,3.75
2023-03-13T16:33:57.987Z,3.70
2023-03-13T16:36:31.082Z,4.60
2023-03-13T16:39:02.777Z,3.90
2023-03-13T16:41:29.529Z,1.35
2023-03-13T16:43:56.546Z,4.03
2023-03-13T16:46:27.163Z,2.20
2023-03-13T16:48:53.621Z,2.15
2023-03-13T16:51:22.883Z,2.10
2023-03-13T16:53:51.171Z,2.00
2023-03-13T16:56:39.448Z,3.42
2023-03-13T16:59:10.809Z,2.00
2023-03-13T17:01:37.741Z,4.00
2023-03-13T17:04:04.518Z,5.80
2023-03-13T17:06:36.877Z,7.55
2023-03-13T17:09:04.766Z,1.50
2023-03-13T17:11:31.215Z,1.80
2023-03-13T17:13:58.461Z,3.63
2023-03-13T17:16:32.045Z,2.10
2023-03-13T17:18:59.065Z,4.07
2023-03-13T17:21:28.883Z,3.03
2023-03-13T17:23:56.014Z,3.22
2023-03-13T17:26:36.508Z,5.72
2023-03-13T17:29:04.356Z,5.70
2023-03-13T17:31:37.006Z,2.00
2023-03-13T17:34:04.757Z,6.30
2023-03-13T17:36:31.273Z,4.38
2023-03-13T17:39:00.446Z,4.70
2023-03-13T17:41:29.681Z,2.38
2023-03-13T17:43:56.458Z,2.17
2023-03-13T17:46:25.623Z,2.33
2023-03-13T17:48:53.696Z,4.65
2023-03-13T17:51:25.213Z,3.95
2023-03-13T17:53:52.708Z,3.20
2023-03-13T17:56:24.569Z,3.55
2023-03-13T17:58:54.335Z,1.55
2023-03-13T18:01:36.732Z,3.45
2023-03-13T18:04:21.731Z,2.05
2023-03-13T18:06:50.414Z,3.25
2023-03-13T18:09:19.673Z,3.30
2023-03-13T18:11:46.888Z,2.13
2023-03-13T18:14:13.441Z,1.52
2023-03-13T18:16:48.425Z,2.35
2023-03-13T18:19:22.758Z,3.58
2023-03-13T18:21:52.084Z,3.72
2023-03-13T18:24:19.155Z,2.65
2023-03-13T18:26:47.753Z,6.43
2023-03-13T18:29:15.771Z,3.47
2023-03-13T18:31:43.681Z,3.88
2023-03-13T18:34:11.506Z,2.05
2023-03-13T18:36:38.608Z,4.13
2023-03-13T18:39:06.253Z,1.98
2023-03-13T18:41:33.510Z,1.65
2023-03-13T18:44:01.593Z,3.03
2023-03-13T18:46:31.546Z,4.28
2023-03-13T18:48:58.821Z,2.15
2023-03-13T18:51:25.870Z,2.22
2023-03-13T18:53:53.668Z,3.35
2023-03-13T18:56:28.897Z,2.05
2023-03-13T18:58:55.771Z,3.97
2023-03-13T19:01:25.619Z,2.03
2023-03-13T19:03:52.278Z,3.88
2023-03-13T19:06:27.769Z,2.65
2023-03-13T19:08:57.036Z,1.80
2023-03-13T19:11:26.144Z,1.95
2023-03-13T19:13:53.238Z,5.50
2023-03-13T19:16:27.276Z,6.15
2023-03-13T19:18:53.933Z,2.00
2023-03-13T19:21:25.567Z,2.13
2023-03-13T19:23:52.757Z,3.47
2023-03-13T19:26:36.327Z,1.80
2023-03-13T19:29:04.097Z,4.78
2023-03-13T19:31:30.533Z,5.15
2023-03-13T19:33:56.969Z,3.15
2023-03-13T19:36:24.660Z,1.92
2023-03-13T19:38:51.084Z,5.07
2023-03-13T19:41:17.538Z,2.45
2023-03-13T19:43:43.986Z,2.58
2023-03-13T19:46:20.734Z,5.25
2023-03-13T19:48:47.507Z,5.82
2023-03-13T19:51:15.010Z,5.03
2023-03-13T19:53:41.481Z,2.55
2023-03-13T19:56:21.336Z,3.28
2023-03-13T19:58:49.885Z,4.07
2023-03-13T20:01:18.012Z,2.92
2023-03-13T20:03:46.291Z,2.97
2023-03-13T20:06:19.005Z,6.65
2023-03-13T20:08:46.650Z,4.13
2023-03-13T20:11:14.621Z,3.85
2023-03-13T20:13:41.538Z,7.03
2023-03-13T20:16:10.739Z,5.88
2023-03-13T20:18:43.196Z,5.25
2023-03-13T20:21:10.300Z,7.65
2023-03-13T20:23:36.751Z,3.17
2023-03-13T20:26:08.320Z,3.42
2023-03-13T20:28:35.697Z,3.10
2023-03-13T20:31:02.418Z,5.53
2023-03-13T20:33:28.894Z,4.88
2023-03-13T20:36:07.504Z,4.85
2023-03-13T20:38:34.821Z,6.20
2023-03-13T20:41:01.916Z,3.95
2023-03-13T20:43:29.018Z,5.07
2023-03-13T20:45:55.828Z,4.50
2023-03-13T20:48:22.564Z,5.90
2023-03-13T20:50:53.216Z,6.80
2023-03-13T20:53:21.113Z,6.32
2023-03-13T20:55:48.347Z,5.50
2023-03-13T20:58:15.880Z,6.63
2023-03-13T21:00:43.660Z,4.13
2023-03-13T21:03:10.105Z,5.82
2023-03-13T21:05:40.312Z,5.90
2023-03-13T21:08:07.201Z,6.57
2023-03-13T21:10:38.276Z,8.50
2023-03-13T21:13:05.118Z,6.88
2023-03-13T21:15:32.076Z,7.82
2023-03-13T21:17:58.658Z,5.75
2023-03-13T21:20:25.490Z,4.82
2023-03-13T21:22:52.436Z,6.03
2023-03-13T21:25:19.638Z,4.70
2023-03-13T21:27:46.036Z,6.47
2023-03-13T21:30:15.174Z,4.35
2023-03-13T21:32:41.773Z,3.75
2023-03-13T21:35:09.182Z,4.95
2023-03-13T21:37:36.464Z,5.63
2023-03-13T21:40:04.496Z,8.90
2023-03-13T21:42:30.895Z,4.15
2023-03-13T21:44:57.289Z,3.20
2023-03-13T21:47:26.558Z,4.35
2023-03-13T21:49:54.720Z,4.70
2023-03-13T21:52:22.268Z,2.50
2023-03-13T21:54:49.081Z,2.40
2023-03-13T21:57:15.787Z,3.63
2023-03-13T21:59:42.624Z,3.00
2023-03-13T22:02:13.373Z,4.22
2023-03-13T22:04:40.039Z,4.82
2023-03-13T22:07:06.496Z,2.95
2023-03-13T22:09:33.256Z,3.63
2023-03-13T22:11:59.628Z,6.05
2023-03-13T22:14:27.929Z,3.33
2023-03-13T22:16:54.719Z,3.65
2023-03-13T22:19:21.135Z,4.22
2023-03-13T22:21:47.547Z,2.40
2023-03-13T22:24:13.944Z,2.80
2023-03-13T22:26:40.335Z,3.00
2023-03-13T22:29:06.749Z,2.65
2023-03-13T22:31:33.169Z,1.80
2023-03-13T22:33:59.568Z,3.78
2023-03-13T22:36:25.998Z,2.83
2023-03-13T22:38:52.442Z,5.30
2023-03-13T22:41:19.410Z,1.70
2023-03-13T22:43:45.882Z,5.35
2023-03-13T22:46:12.321Z,1.85
2023-03-13T22:48:39.655Z,3.70
2023-03-13T22:51:11.559Z,2.88
2023-03-13T22:53:40.436Z,1.88
2023-03-13T22:56:09.932Z,1.60
2023-03-13T22:58:37.343Z,2.08
2023-03-13T23:01:09.616Z,3.10
2023-03-13T23:03:36.231Z,4.22
2023-03-13T23:06:07.532Z,1.48
2023-03-13T23:08:34.875Z,2.10
2023-03-13T23:11:03.306Z,4.65
2023-03-13T23:13:30.296Z,3.22
2023-03-13T23:15:56.981Z,3.03
2023-03-13T23:18:27.599Z,1.10
2023-03-13T23:20:54.768Z,2.55
2023-03-13T23:23:21.532Z,1.48
2023-03-13T23:25:47.923Z,2.40
2023-03-13T23:28:14.340Z,2.30
2023-03-13T23:30:40.831Z,2.50
2023-03-13T23:33:07.221Z,3.03
2023-03-13T23:35:36.677Z,1.75
2023-03-13T23:38:03.108Z,2.75
2023-03-13T23:40:29.525Z,1.88
2023-03-13T23:42:55.904Z,3.08
2023-03-13T23:45:22.333Z,4.00
2023-03-13T23:47:48.787Z,3.40
2023-03-13T23:50:15.877Z,4.43
2023-03-13T23:52:42.500Z,1.85
2023-03-13T23:55:09.813Z,4.95
2023-03-13T23:57:37.612Z,1.55
